createdAt,value
2022-08-19T00:09:40.730Z,18.29
2022-08-19T00:25:23.047Z,16.5
2022-08-19T00:41:05.502Z,18.5
2022-08-19T00:56:47.923Z,23.1
2022-08-19T01:28:12.939Z,28.4
2022-08-19T01:43:55.030Z,28
2022-08-19T01:59:37.432Z,21.3
2022-08-19T02:15:19.770Z,24.5
2022-08-19T02:31:02.348Z,23.5
2022-08-19T02:46:45.063Z,24.9
2022-08-19T03:02:27.209Z,28.7
2022-08-19T03:18:09.964Z,32
2022-08-19T03:33:52.279Z,34
2022-08-19T03:49:34.812Z,31.7
2022-08-19T03:50:22.057Z,33
2022-08-19T04:06:04.568Z,32.7
2022-08-19T04:21:47.214Z,33.9
2022-08-19T04:37:29.971Z,31.3
2022-08-19T04:53:12.520Z,26.4
2022-08-19T05:08:55.238Z,26.6
2022-08-19T05:24:37.995Z,24.7
2022-08-19T05:40:20.571Z,18.7
2022-08-19T05:56:03.093Z,16.5
2022-08-19T06:11:45.623Z,16.79
2022-08-19T06:27:28.386Z,15.5
2022-08-19T06:43:11.308Z,16
2022-08-19T06:58:54.171Z,15.9
2022-08-19T07:14:36.274Z,17.79
2022-08-19T07:30:18.227Z,16.79
2022-08-19T07:46:00.230Z,16.29
2022-08-19T08:01:42.538Z,15.2
2022-08-19T08:17:25.101Z,14.8
2022-08-19T08:33:07.697Z,13
2022-08-19T08:48:50.583Z,13.1
2022-08-19T09:04:32.621Z,13.7
2022-08-19T09:20:15.167Z,13.7
2022-08-19T09:35:57.227Z,14.7
2022-08-19T09:51:40.076Z,17
2022-08-19T10:07:22.116Z,17
2022-08-19T10:23:04.198Z,15.7
2022-08-19T10:38:46.320Z,16.4
2022-08-19T10:54:28.742Z,15.8
2022-08-19T11:10:11.296Z,16
2022-08-19T11:25:53.324Z,14.3
2022-08-19T11:41:35.335Z,13.4
2022-08-19T11:57:17.583Z,11.7
2022-08-19T12:12:59.771Z,11.7
2022-08-19T12:28:41.736Z,12.1
2022-08-19T12:44:23.720Z,12.1
2022-08-19T13:00:05.680Z,10.2
2022-08-19T13:15:47.893Z,10.5
2022-08-19T13:31:30.589Z,10.3
2022-08-19T13:47:12.595Z,10.5
2022-08-19T14:02:55.078Z,11.3
2022-08-19T14:18:37.742Z,12.1
2022-08-19T14:34:20.522Z,11.6
2022-08-19T14:50:03.210Z,11.1
2022-08-19T15:05:45.340Z,12.3
2022-08-19T15:21:27.819Z,12.2
2022-08-19T15:37:10.202Z,11.6
2022-08-19T15:52:52.496Z,10.4
2022-08-19T16:08:34.725Z,11.9
2022-08-19T16:24:17.270Z,12.2
2022-08-19T16:39:59.667Z,14.1
2022-08-19T16:55:42.375Z,11.7
2022-08-19T17:11:25.123Z,11.7
2022-08-19T17:42:49.556Z,13
2022-08-19T17:58:31.753Z,10.9
2022-08-19T18:14:13.843Z,10.8
2022-08-19T18:29:56.377Z,9.89
2022-08-19T18:45:39.074Z,10.3
2022-08-19T19:01:22.083Z,10.4
2022-08-19T19:17:04.723Z,9.2
2022-08-19T19:32:46.804Z,10
2022-08-19T19:48:29.327Z,11.6
2022-08-19T20:04:11.961Z,12.2
2022-08-19T20:19:54.456Z,14.6
2022-08-19T20:35:36.764Z,15.2
2022-08-19T20:51:18.860Z,15.4
2022-08-19T21:07:01.799Z,11.5
2022-08-19T21:22:44.016Z,10.7
2022-08-19T21:38:26.197Z,11.6
2022-08-19T21:54:08.462Z,10.6
2022-08-19T22:09:51.045Z,10.6
2022-08-19T22:25:33.969Z,10.8
2022-08-19T22:41:16.832Z,11.3
2022-08-19T22:56:59.370Z,10.6
2022-08-19T23:12:41.778Z,11.4
2022-08-19T23:28:23.979Z,17.4
2022-08-19T23:44:06.672Z,19.2
2022-08-19T23:59:49.109Z,19.4
